Time;durP1;ratioP1;P1;durP2;ratioP2;P2;SDS_P1;SDS_P2;PMS_P1;PMS_P2;Temp;Humidity;BMP_temperature;BMP_pressure;BME280_temperature;BME280_humidity;BME280_pressure;Samples;Min_cycle;Max_cycle;Signal;HPM_P1;HPM_P2
2022/09/17 00:01:41;;;;;;;15.00;12.50;;;;;;;20.95;55.24;99577.86;116962;1189;22612;-67
2022/09/17 00:04:09;;;;;;;16.20;12.60;;;;;;;20.96;55.20;99580.63;116995;1189;22932;-68
2022/09/17 00:06:35;;;;;;;14.70;13.30;;;;;;;20.97;55.17;99586.27;116961;1189;24166;-61
2022/09/17 00:09:04;;;;;;;14.70;13.30;;;;;;;21.00;55.27;99593.07;116948;1185;21868;-62
2022/09/17 00:11:34;;;;;;;13.50;12.20;;;;;;;21.00;55.39;99587.34;117048;1184;23524;-62
2022/09/17 00:14:01;;;;;;;14.70;13.00;;;;;;;20.99;55.45;99582.20;117100;1187;21910;-68
2022/09/17 00:16:31;;;;;;;16.10;13.00;;;;;;;21.00;55.47;99585.33;117044;1189;22661;-62
2022/09/17 00:18:58;;;;;;;13.00;11.70;;;;;;;21.01;55.52;99583.15;117048;1188;21858;-62
2022/09/17 00:21:26;;;;;;;16.30;13.00;;;;;;;21.03;55.67;99578.23;116993;1188;23653;-63
2022/09/17 00:23:58;;;;;;;14.70;12.00;;;;;;;21.05;55.66;99569.50;117073;1188;22217;-62
2022/09/17 00:26:25;;;;;;;18.40;12.60;;;;;;;21.06;55.71;99559.59;116987;1188;24170;-68
2022/09/17 00:28:53;;;;;;;16.60;12.30;;;;;;;21.08;55.84;99554.98;116988;1188;22735;-62
2022/09/17 00:31:20;;;;;;;13.30;11.90;;;;;;;21.11;55.87;99551.09;117004;1188;22949;-62
2022/09/17 00:33:48;;;;;;;14.10;12.60;;;;;;;21.13;55.86;99550.95;117011;1188;21885;-62
2022/09/17 00:36:15;;;;;;;13.90;12.30;;;;;;;21.13;55.65;99542.91;117016;1188;23622;-68
2022/09/17 00:38:43;;;;;;;13.30;12.00;;;;;;;21.13;55.85;99545.77;116995;1188;22739;-68
2022/09/17 00:41:09;;;;;;;14.30;11.90;;;;;;;21.12;55.77;99548.90;116983;1185;24300;-62
2022/09/17 00:43:45;;;;;;;15.20;12.90;;;;;;;21.12;55.93;99545.46;116949;1185;24253;-68
2022/09/17 00:46:31;;;;;;;13.80;12.30;;;;;;;21.11;55.99;99536.46;117035;1186;22946;-62
2022/09/17 00:49:02;;;;;;;13.70;12.30;;;;;;;21.10;55.91;99534.00;116940;1188;22097;-62
2022/09/17 00:51:34;;;;;;;13.10;11.80;;;;;;;21.10;56.24;99531.90;116984;1188;21867;-62
2022/09/17 00:54:02;;;;;;;12.80;11.60;;;;;;;21.07;56.21;99527.77;116993;1186;24239;-65
2022/09/17 00:56:32;;;;;;;12.80;11.60;;;;;;;21.06;56.12;99515.22;117085;1188;23582;-67
2022/09/17 00:58:59;;;;;;;12.80;11.10;;;;;;;21.04;55.98;99511.77;117055;1188;23557;-62
2022/09/17 01:01:27;;;;;;;11.60;10.40;;;;;;;21.06;56.18;99513.98;116939;1188;22237;-62
2022/09/17 01:03:54;;;;;;;12.80;11.40;;;;;;;21.06;56.31;99515.68;116954;1186;21857;-62
2022/09/17 01:06:41;;;;;;;12.00;10.80;;;;;;;21.06;56.40;99510.89;116986;1186;22619;-67
2022/09/17 01:09:12;;;;;;;11.40;10.20;;;;;;;21.05;57.22;99508.11;117036;1188;22710;-63
2022/09/17 01:11:51;;;;;;;10.60;9.50;;;;;;;21.03;57.35;99510.41;116901;1185;23455;-68
2022/09/17 01:14:41;;;;;;;9.70;8.80;;;;;;;21.01;57.26;99510.07;117048;1188;21968;-68
2022/09/17 01:17:30;;;;;;;9.40;8.60;;;;;;;21.00;58.27;99511.37;116824;1193;24184;-62
2022/09/17 01:20:18;;;;;;;10.30;8.40;;;;;;;20.98;58.24;99505.62;117018;1188;22928;-63
2022/09/17 01:22:57;;;;;;;9.40;8.40;;;;;;;20.97;58.72;99496.94;116968;1186;23550;-62
2022/09/17 01:25:36;;;;;;;8.40;7.60;;;;;;;20.98;58.48;99485.27;116968;1188;22623;-68
2022/09/17 01:28:10;;;;;;;8.50;7.70;;;;;;;21.00;58.67;99481.06;117013;1187;22323;-69
2022/09/17 01:31:00;;;;;;;7.70;7.00;;;;;;;21.01;58.59;99474.73;116933;1188;22640;-69
2022/09/17 01:33:30;;;;;;;;;;;;;;;21.02;58.38;99471.98;116969;1189;22918;-63
2022/09/17 01:36:19;;;;;;;7.50;6.40;;;;;;;21.05;58.07;99477.69;117013;1189;21867;-68
2022/09/17 01:39:02;;;;;;;6.90;5.90;;;;;;;21.08;57.64;99473.66;116974;1185;23512;-62
2022/09/17 01:41:59;;;;;;;7.10;6.30;;;;;;;21.13;57.57;99474.96;116951;1189;22924;-69
2022/09/17 01:44:35;;;;;;;6.80;6.10;;;;;;;21.16;57.33;99474.73;116979;1186;24157;-64
2022/09/17 01:47:05;;;;;;;6.90;4.90;;;;;;;21.17;57.62;99477.51;116858;1189;21919;-62
2022/09/17 01:49:34;;;;;;;6.00;5.30;;;;;;;21.17;57.53;99474.53;116996;1185;24217;-62
2022/09/17 01:52:01;;;;;;;6.00;5.20;;;;;;;21.15;57.32;99472.01;116983;1188;22914;-69
2022/09/17 01:54:30;;;;;;;10.10;5.30;;;;;;;21.11;57.83;99469.89;116836;1188;22897;-62
2022/09/17 01:57:13;;;;;;;7.30;4.60;;;;;;;21.08;57.57;99467.77;116879;1187;21934;-62
2022/09/17 01:59:45;;;;;;;8.10;5.00;;;;;;;21.05;57.63;99467.98;116930;1188;22624;-62
2022/09/17 02:02:15;;;;;;;7.40;5.00;;;;;;;21.03;57.35;99467.81;116856;1185;23530;-62
2022/09/17 02:04:47;;;;;;;7.70;5.00;;;;;;;21.02;57.36;99469.13;116989;1187;21851;-62
2022/09/17 02:07:21;;;;;;;8.30;5.40;;;;;;;21.02;57.77;99468.94;116895;1185;21926;-68
2022/09/17 02:09:58;;;;;;;11.40;6.60;;;;;;;21.01;58.24;99465.61;116798;1189;23460;-69
2022/09/17 02:12:29;;;;;;;9.40;6.50;;;;;;;20.99;58.51;99460.25;116984;1188;23628;-62
2022/09/17 02:14:57;;;;;;;9.10;6.50;;;;;;;20.98;57.84;99459.44;116751;1188;22916;-70
2022/09/17 02:17:41;;;;;;;8.90;6.40;;;;;;;20.99;58.26;99464.74;117070;1187;22926;-69
2022/09/17 02:20:09;;;;;;;13.80;7.30;;;;;;;20.99;58.72;99473.94;116909;1185;23022;-69
2022/09/17 02:22:41;;;;;;;8.30;7.40;;;;;;;21.00;58.28;99476.79;116795;1191;23601;-62
2022/09/17 02:25:19;;;;;;;8.40;6.60;;;;;;;21.02;58.54;99481.61;117004;1188;22931;-62
2022/09/17 02:28:08;;;;;;;11.70;7.60;;;;;;;21.03;58.31;99484.55;116874;1189;22632;-66
2022/09/17 02:30:35;;;;;;;8.90;7.20;;;;;;;21.05;58.01;99482.82;117009;1188;23082;-59
2022/09/17 02:33:03;;;;;;;14.80;7.30;;;;;;;21.07;58.34;99482.81;116948;1188;21881;-67
2022/09/17 02:35:32;;;;;;;7.80;7.00;;;;;;;21.08;58.05;99483.27;117036;1188;21879;-66
2022/09/17 02:37:59;;;;;;;10.90;7.00;;;;;;;21.10;57.90;99481.38;116825;1186;21858;-66
2022/09/17 02:40:29;;;;;;;8.10;6.80;;;;;;;21.13;57.79;99477.97;116923;1188;21945;-66
2022/09/17 02:43:06;;;;;;;7.10;6.10;;;;;;;21.16;57.74;99480.65;116977;1187;21891;-66
2022/09/17 02:45:45;;;;;;;9.30;6.30;;;;;;;21.18;57.67;99477.27;116787;1186;22070;-59
2022/09/17 02:48:30;;;;;;;7.50;5.70;;;;;;;21.20;57.67;99477.52;116919;1188;22916;-62
2022/09/17 02:51:05;;;;;;;6.50;5.30;;;;;;;21.20;57.89;99477.49;117049;1187;21926;-69
2022/09/17 02:53:48;;;;;;;6.20;4.40;;;;;;;21.18;58.09;99477.44;116898;1188;23572;-69
2022/09/17 02:56:36;;;;;;;6.20;3.80;;;;;;;21.15;58.31;99477.70;116911;1188;22763;-69
2022/09/17 02:59:15;;;;;;;5.30;4.30;;;;;;;21.07;58.22;99477.48;116987;1187;23649;-62
2022/09/17 03:01:46;;;;;;;6.60;4.70;;;;;;;21.01;58.44;99474.35;116949;1191;22064;-69
2022/09/17 03:04:14;;;;;;;5.20;3.60;;;;;;;20.97;58.97;99473.38;117002;1187;21856;-69
2022/09/17 03:06:44;;;;;;;5.10;4.00;;;;;;;20.94;58.39;99468.23;119078;1187;22168;-63
2022/09/17 03:09:13;;;;;;;8.80;3.90;;;;;;;20.93;58.70;99465.29;118879;1188;21813;-70
2022/09/17 03:11:40;;;;;;;4.90;3.70;;;;;;;20.92;58.26;99467.13;117541;1188;22777;-62
2022/09/17 03:14:07;;;;;;;5.40;3.90;;;;;;;20.93;58.45;99471.71;116881;1188;23557;-67
2022/09/17 03:16:34;;;;;;;6.70;3.80;;;;;;;20.93;58.62;99470.83;116901;1188;21863;-59
2022/09/17 03:19:01;;;;;;;6.20;3.90;;;;;;;20.93;58.43;99471.55;119047;1187;21779;-67
2022/09/17 03:21:28;;;;;;;8.20;4.40;;;;;;;20.93;58.52;99473.52;118481;1186;23484;-59
2022/09/17 03:23:56;;;;;;;12.20;5.20;;;;;;;20.93;58.20;99471.69;117004;1186;24167;-59
2022/09/17 03:26:23;;;;;;;6.00;4.70;;;;;;;20.97;58.05;99474.14;117109;1189;23697;-59
2022/09/17 03:28:50;;;;;;;11.30;5.70;;;;;;;21.00;58.54;99478.05;116936;1188;22750;-59
2022/09/17 03:31:18;;;;;;;8.80;4.50;;;;;;;21.02;58.34;99481.98;117038;1188;22532;-66
2022/09/17 03:33:45;;;;;;;6.20;4.80;;;;;;;21.02;58.12;99480.85;116936;1188;21858;-58
2022/09/17 03:36:12;;;;;;;16.30;5.20;;;;;;;21.06;58.06;99478.82;116961;1188;23557;-59
2022/09/17 03:38:39;;;;;;;20.80;5.20;;;;;;;21.10;57.83;99478.52;116888;1185;21865;-58
2022/09/17 03:41:06;;;;;;;13.50;4.10;;;;;;;21.14;57.64;99479.33;116929;1186;23457;-68
2022/09/17 03:43:33;;;;;;;10.50;4.10;;;;;;;21.19;57.63;99478.49;116987;1188;22073;-65
2022/09/17 03:46:01;;;;;;;8.00;3.80;;;;;;;21.23;57.57;99480.69;117036;1188;23281;-66
2022/09/17 03:48:29;;;;;;;9.00;3.80;;;;;;;21.26;57.47;99476.55;116970;1184;21858;-62
2022/09/17 03:50:56;;;;;;;8.70;3.80;;;;;;;21.28;57.44;99472.63;116979;1188;22136;-62
2022/09/17 03:53:22;;;;;;;9.50;5.00;;;;;;;21.30;57.39;99471.41;116975;1188;22927;-69
2022/09/17 03:55:50;;;;;;;5.40;3.40;;;;;;;21.32;57.37;99474.12;116956;1188;21930;-68
2022/09/17 03:58:17;;;;;;;7.50;3.90;;;;;;;21.35;57.32;99478.41;116846;1189;23587;-69
2022/09/17 04:00:44;;;;;;;6.40;4.20;;;;;;;21.36;57.25;99474.19;116873;1188;23652;-68
2022/09/17 04:03:11;;;;;;;8.00;3.80;;;;;;;21.38;57.23;99469.41;116727;1189;24175;-68
2022/09/17 04:05:38;;;;;;;11.70;4.60;;;;;;;21.39;57.28;99467.73;116776;1186;22920;-61
2022/09/17 04:08:06;;;;;;;7.50;4.00;;;;;;;21.41;57.28;99462.81;116798;1186;21856;-61
2022/09/17 04:10:33;;;;;;;9.20;4.00;;;;;;;21.42;57.29;99454.86;116920;1188;22620;-61
2022/09/17 04:13:00;;;;;;;6.20;3.70;;;;;;;21.43;57.24;99445.72;116765;1190;22841;-68
2022/09/17 04:15:27;;;;;;;15.00;4.70;;;;;;;21.43;57.27;99442.66;116715;1189;22635;-61
2022/09/17 04:17:56;;;;;;;8.20;4.40;;;;;;;21.44;57.24;99438.89;116708;1189;21862;-71
2022/09/17 04:20:24;;;;;;;5.00;3.50;;;;;;;21.43;57.27;99436.77;116819;1189;23589;-68
2022/09/17 04:22:52;;;;;;;6.10;3.40;;;;;;;21.44;57.25;99437.09;116853;1187;21862;-68
2022/09/17 04:25:18;;;;;;;4.50;3.50;;;;;;;21.44;57.26;99439.05;116812;1189;21859;-61
2022/09/17 04:27:46;;;;;;;4.40;3.50;;;;;;;21.44;57.22;99432.98;116923;1188;22632;-61
2022/09/17 04:30:14;;;;;;;9.00;4.10;;;;;;;21.45;57.25;99429.52;116900;1188;21956;-66
2022/09/17 04:32:42;;;;;;;4.90;4.00;;;;;;;21.45;57.23;99428.59;116807;1189;24158;-61
2022/09/17 04:35:10;;;;;;;5.10;3.40;;;;;;;21.46;57.29;99428.54;116950;1186;23590;-62
2022/09/17 04:37:37;;;;;;;8.40;3.80;;;;;;;21.48;57.23;99424.48;116956;1189;21851;-68
2022/09/17 04:40:05;;;;;;;4.20;3.70;;;;;;;21.50;57.24;99420.41;116857;1189;22727;-62
2022/09/17 04:42:33;;;;;;;4.90;3.60;;;;;;;21.52;57.25;99419.54;116856;1188;22017;-68
2022/09/17 04:45:00;;;;;;;8.30;3.60;;;;;;;21.54;57.25;99416.91;116897;1189;21863;-61
2022/09/17 04:47:27;;;;;;;4.50;3.30;;;;;;;21.56;57.33;99413.00;116842;1188;22834;-61
2022/09/17 04:49:54;;;;;;;4.40;3.50;;;;;;;21.59;57.43;99403.21;117031;1187;22188;-60
